sensor_id;sensor_type;location;lat;lon;timestamp;P1;durP1;ratioP1;P2;durP2;ratioP2
20458;SDS011;10388;52.314;7.938;2022-09-30T00:02:02;10.93;;;9.50;;
20458;SDS011;10388;52.314;7.938;2022-09-30T00:04:33;12.23;;;9.87;;
20458;SDS011;10388;52.314;7.938;2022-09-30T00:07:03;11.27;;;10.07;;
20458;SDS011;10388;52.314;7.938;2022-09-30T00:09:34;11.53;;;10.33;;
20458;SDS011;10388;52.314;7.938;2022-09-30T00:12:05;12.30;;;11.10;;
20458;SDS011;10388;52.314;7.938;2022-09-30T00:59:36;9.87;;;8.87;;
20458;SDS011;10388;52.314;7.938;2022-09-30T01:13:05;11.07;;;9.47;;
20458;SDS011;10388;52.314;7.938;2022-09-30T01:40:31;14.20;;;11.23;;
20458;SDS011;10388;52.314;7.938;2022-09-30T01:47:16;12.10;;;10.47;;
20458;SDS011;10388;52.314;7.938;2022-09-30T01:50:34;11.20;;;9.90;;
20458;SDS011;10388;52.314;7.938;2022-09-30T02:21:16;9.73;;;8.30;;
20458;SDS011;10388;52.314;7.938;2022-09-30T02:27:43;10.50;;;9.40;;
20458;SDS011;10388;52.314;7.938;2022-09-30T02:30:52;11.90;;;10.63;;
20458;SDS011;10388;52.314;7.938;2022-09-30T02:33:57;12.33;;;10.40;;
20458;SDS011;10388;52.314;7.938;2022-09-30T02:43:24;11.73;;;10.53;;
20458;SDS011;10388;52.314;7.938;2022-09-30T03:07:00;12.20;;;10.77;;
20458;SDS011;10388;52.314;7.938;2022-09-30T03:10:14;12.40;;;10.70;;
20458;SDS011;10388;52.314;7.938;2022-09-30T03:24:35;13.47;;;11.93;;
20458;SDS011;10388;52.314;7.938;2022-09-30T04:03:30;17.60;;;13.23;;
20458;SDS011;10388;52.314;7.938;2022-09-30T04:06:38;14.57;;;12.97;;
20458;SDS011;10388;52.314;7.938;2022-09-30T04:10:01;14.40;;;11.50;;
20458;SDS011;10388;52.314;7.938;2022-09-30T04:16:32;14.27;;;12.77;;
20458;SDS011;10388;52.314;7.938;2022-09-30T04:19:25;14.23;;;12.43;;
20458;SDS011;10388;52.314;7.938;2022-09-30T04:22:32;13.93;;;12.00;;
20458;SDS011;10388;52.314;7.938;2022-09-30T04:25:34;14.60;;;12.87;;
20458;SDS011;10388;52.314;7.938;2022-09-30T04:28:40;14.13;;;12.53;;
20458;SDS011;10388;52.314;7.938;2022-09-30T04:31:32;14.63;;;13.00;;
20458;SDS011;10388;52.314;7.938;2022-09-30T04:34:36;13.00;;;11.70;;
20458;SDS011;10388;52.314;7.938;2022-09-30T04:37:57;13.57;;;12.17;;
20458;SDS011;10388;52.314;7.938;2022-09-30T04:43:47;15.07;;;12.93;;
20458;SDS011;10388;52.314;7.938;2022-09-30T04:46:19;14.33;;;12.83;;
20458;SDS011;10388;52.314;7.938;2022-09-30T04:48:50;19.93;;;13.57;;
20458;SDS011;10388;52.314;7.938;2022-09-30T04:51:20;17.27;;;13.30;;
20458;SDS011;10388;52.314;7.938;2022-09-30T04:53:51;14.57;;;12.47;;
20458;SDS011;10388;52.314;7.938;2022-09-30T04:56:22;17.07;;;13.13;;
20458;SDS011;10388;52.314;7.938;2022-09-30T04:58:53;15.63;;;12.70;;
20458;SDS011;10388;52.314;7.938;2022-09-30T05:01:23;14.23;;;12.63;;
20458;SDS011;10388;52.314;7.938;2022-09-30T05:03:54;13.90;;;11.63;;
20458;SDS011;10388;52.314;7.938;2022-09-30T05:06:24;14.30;;;12.80;;
20458;SDS011;10388;52.314;7.938;2022-09-30T05:08:55;13.53;;;12.07;;
20458;SDS011;10388;52.314;7.938;2022-09-30T05:11:26;14.40;;;12.27;;
20458;SDS011;10388;52.314;7.938;2022-09-30T05:13:56;16.00;;;13.57;;
20458;SDS011;10388;52.314;7.938;2022-09-30T05:16:27;14.80;;;12.43;;
20458;SDS011;10388;52.314;7.938;2022-09-30T05:18:57;17.30;;;12.10;;
20458;SDS011;10388;52.314;7.938;2022-09-30T05:21:28;15.50;;;12.97;;
20458;SDS011;10388;52.314;7.938;2022-09-30T05:23:59;15.40;;;12.13;;
20458;SDS011;10388;52.314;7.938;2022-09-30T05:26:30;13.97;;;12.43;;
20458;SDS011;10388;52.314;7.938;2022-09-30T05:29:01;14.63;;;12.93;;
20458;SDS011;10388;52.314;7.938;2022-09-30T05:31:32;17.73;;;12.57;;
20458;SDS011;10388;52.314;7.938;2022-09-30T05:34:03;14.27;;;12.77;;
20458;SDS011;10388;52.314;7.938;2022-09-30T05:36:33;18.13;;;12.97;;
20458;SDS011;10388;52.314;7.938;2022-09-30T05:39:04;15.53;;;13.83;;
20458;SDS011;10388;52.314;7.938;2022-09-30T05:41:34;16.40;;;13.43;;
20458;SDS011;10388;52.314;7.938;2022-09-30T05:44:05;19.20;;;14.00;;
20458;SDS011;10388;52.314;7.938;2022-09-30T05:46:37;16.23;;;13.77;;
20458;SDS011;10388;52.314;7.938;2022-09-30T05:49:08;18.67;;;13.90;;
20458;SDS011;10388;52.314;7.938;2022-09-30T05:51:38;16.43;;;14.37;;
20458;SDS011;10388;52.314;7.938;2022-09-30T05:54:09;16.83;;;14.00;;
20458;SDS011;10388;52.314;7.938;2022-09-30T05:56:40;16.90;;;13.87;;
20458;SDS011;10388;52.314;7.938;2022-09-30T05:59:11;16.93;;;13.73;;
20458;SDS011;10388;52.314;7.938;2022-09-30T06:01:42;16.03;;;13.80;;
20458;SDS011;10388;52.314;7.938;2022-09-30T06:04:12;16.60;;;13.80;;
20458;SDS011;10388;52.314;7.938;2022-09-30T06:06:43;21.20;;;14.50;;
20458;SDS011;10388;52.314;7.938;2022-09-30T06:09:14;20.83;;;15.13;;
20458;SDS011;10388;52.314;7.938;2022-09-30T06:11:45;20.03;;;16.00;;
20458;SDS011;10388;52.314;7.938;2022-09-30T06:14:16;20.17;;;15.77;;
20458;SDS011;10388;52.314;7.938;2022-09-30T06:16:48;20.57;;;15.80;;
20458;SDS011;10388;52.314;7.938;2022-09-30T06:19:19;25.37;;;17.47;;
20458;SDS011;10388;52.314;7.938;2022-09-30T06:21:50;21.73;;;16.90;;
20458;SDS011;10388;52.314;7.938;2022-09-30T06:24:21;21.87;;;17.83;;
20458;SDS011;10388;52.314;7.938;2022-09-30T06:26:51;24.63;;;18.83;;
20458;SDS011;10388;52.314;7.938;2022-09-30T06:29:22;24.87;;;18.87;;
20458;SDS011;10388;52.314;7.938;2022-09-30T06:31:52;26.37;;;17.63;;
20458;SDS011;10388;52.314;7.938;2022-09-30T06:34:23;25.50;;;19.30;;
20458;SDS011;10388;52.314;7.938;2022-09-30T06:36:53;23.87;;;19.13;;
20458;SDS011;10388;52.314;7.938;2022-09-30T06:39:24;29.80;;;22.13;;
20458;SDS011;10388;52.314;7.938;2022-09-30T06:41:56;30.17;;;21.23;;
20458;SDS011;10388;52.314;7.938;2022-09-30T06:44:27;34.67;;;21.67;;
20458;SDS011;10388;52.314;7.938;2022-09-30T06:46:57;31.83;;;21.57;;
20458;SDS011;10388;52.314;7.938;2022-09-30T06:49:29;29.43;;;21.60;;
20458;SDS011;10388;52.314;7.938;2022-09-30T06:52:00;29.83;;;21.90;;
20458;SDS011;10388;52.314;7.938;2022-09-30T06:54:31;27.93;;;20.60;;
20458;SDS011;10388;52.314;7.938;2022-09-30T06:57:01;26.60;;;20.50;;
20458;SDS011;10388;52.314;7.938;2022-09-30T06:59:32;25.90;;;20.40;;
20458;SDS011;10388;52.314;7.938;2022-09-30T07:02:03;29.43;;;21.27;;
20458;SDS011;10388;52.314;7.938;2022-09-30T07:04:33;32.33;;;21.77;;
20458;SDS011;10388;52.314;7.938;2022-09-30T07:07:04;26.83;;;20.37;;
20458;SDS011;10388;52.314;7.938;2022-09-30T07:09:36;29.67;;;21.47;;
20458;SDS011;10388;52.314;7.938;2022-09-30T07:12:06;26.83;;;20.13;;
20458;SDS011;10388;52.314;7.938;2022-09-30T07:14:37;27.27;;;20.20;;
20458;SDS011;10388;52.314;7.938;2022-09-30T07:17:08;25.10;;;19.63;;
20458;SDS011;10388;52.314;7.938;2022-09-30T07:19:38;26.90;;;19.77;;
20458;SDS011;10388;52.314;7.938;2022-09-30T07:22:09;24.43;;;18.80;;
20458;SDS011;10388;52.314;7.938;2022-09-30T07:24:58;26.53;;;18.50;;
20458;SDS011;10388;52.314;7.938;2022-09-30T07:27:31;25.43;;;19.40;;
20458;SDS011;10388;52.314;7.938;2022-09-30T07:30:03;24.37;;;19.17;;
20458;SDS011;10388;52.314;7.938;2022-09-30T07:32:34;26.87;;;19.17;;
20458;SDS011;10388;52.314;7.938;2022-09-30T07:35:05;26.00;;;18.70;;
20458;SDS011;10388;52.314;7.938;2022-09-30T07:37:36;24.00;;;18.47;;
20458;SDS011;10388;52.314;7.938;2022-09-30T07:40:07;23.43;;;17.70;;
20458;SDS011;10388;52.314;7.938;2022-09-30T07:42:38;23.13;;;17.27;;
20458;SDS011;10388;52.314;7.938;2022-09-30T07:45:14;22.30;;;17.27;;
20458;SDS011;10388;52.314;7.938;2022-09-30T07:47:48;19.97;;;16.07;;
20458;SDS011;10388;52.314;7.938;2022-09-30T07:50:19;22.13;;;16.80;;
20458;SDS011;10388;52.314;7.938;2022-09-30T07:52:51;21.60;;;16.33;;
20458;SDS011;10388;52.314;7.938;2022-09-30T07:55:22;25.23;;;16.10;;
20458;SDS011;10388;52.314;7.938;2022-09-30T07:57:52;21.90;;;16.80;;
20458;SDS011;10388;52.314;7.938;2022-09-30T08:00:23;19.67;;;16.43;;
20458;SDS011;10388;52.314;7.938;2022-09-30T08:02:53;21.20;;;15.37;;
20458;SDS011;10388;52.314;7.938;2022-09-30T08:05:24;19.77;;;15.40;;
20458;SDS011;10388;52.314;7.938;2022-09-30T08:07:55;17.03;;;14.93;;
20458;SDS011;10388;52.314;7.938;2022-09-30T08:10:25;20.77;;;16.53;;
20458;SDS011;10388;52.314;7.938;2022-09-30T08:12:56;23.00;;;15.60;;
20458;SDS011;10388;52.314;7.938;2022-09-30T08:15:26;21.73;;;14.80;;
20458;SDS011;10388;52.314;7.938;2022-09-30T08:17:57;20.50;;;14.60;;
20458;SDS011;10388;52.314;7.938;2022-09-30T08:20:27;17.97;;;13.87;;
20458;SDS011;10388;52.314;7.938;2022-09-30T08:22:58;15.63;;;13.10;;
20458;SDS011;10388;52.314;7.938;2022-09-30T08:25:28;17.47;;;13.57;;
20458;SDS011;10388;52.314;7.938;2022-09-30T08:27:59;18.47;;;14.13;;
20458;SDS011;10388;52.314;7.938;2022-09-30T08:30:30;18.70;;;14.47;;
20458;SDS011;10388;52.314;7.938;2022-09-30T08:33:04;17.00;;;13.67;;
20458;SDS011;10388;52.314;7.938;2022-09-30T08:35:34;20.93;;;14.07;;
20458;SDS011;10388;52.314;7.938;2022-09-30T08:38:05;15.23;;;12.93;;
20458;SDS011;10388;52.314;7.938;2022-09-30T08:40:37;17.07;;;14.13;;
20458;SDS011;10388;52.314;7.938;2022-09-30T08:43:30;16.17;;;13.17;;
20458;SDS011;10388;52.314;7.938;2022-09-30T08:46:07;14.60;;;12.63;;
20458;SDS011;10388;52.314;7.938;2022-09-30T08:51:37;14.70;;;12.70;;
20458;SDS011;10388;52.314;7.938;2022-09-30T08:54:19;16.73;;;13.67;;
20458;SDS011;10388;52.314;7.938;2022-09-30T08:56:52;16.33;;;12.37;;
20458;SDS011;10388;52.314;7.938;2022-09-30T08:59:27;14.13;;;12.27;;
20458;SDS011;10388;52.314;7.938;2022-09-30T09:05:04;14.63;;;12.00;;
20458;SDS011;10388;52.314;7.938;2022-09-30T09:07:39;15.73;;;12.73;;
20458;SDS011;10388;52.314;7.938;2022-09-30T09:10:23;13.50;;;11.60;;
20458;SDS011;10388;52.314;7.938;2022-09-30T09:13:15;15.00;;;12.27;;
20458;SDS011;10388;52.314;7.938;2022-09-30T09:18:45;12.90;;;10.60;;
20458;SDS011;10388;52.314;7.938;2022-09-30T09:21:26;14.30;;;11.10;;
20458;SDS011;10388;52.314;7.938;2022-09-30T09:24:00;11.47;;;10.27;;
20458;SDS011;10388;52.314;7.938;2022-09-30T09:26:34;14.13;;;10.30;;
20458;SDS011;10388;52.314;7.938;2022-09-30T09:29:14;11.27;;;9.60;;
20458;SDS011;10388;52.314;7.938;2022-09-30T09:31:54;11.80;;;10.50;;
20458;SDS011;10388;52.314;7.938;2022-09-30T09:34:26;11.43;;;9.23;;
20458;SDS011;10388;52.314;7.938;2022-09-30T09:48:29;10.80;;;9.43;;
20458;SDS011;10388;52.314;7.938;2022-09-30T09:51:25;10.73;;;9.57;;
20458;SDS011;10388;52.314;7.938;2022-09-30T09:54:00;12.93;;;8.97;;
20458;SDS011;10388;52.314;7.938;2022-09-30T09:56:31;10.80;;;9.33;;
20458;SDS011;10388;52.314;7.938;2022-09-30T09:59:12;10.43;;;9.00;;
20458;SDS011;10388;52.314;7.938;2022-09-30T10:01:47;10.17;;;9.13;;
20458;SDS011;10388;52.314;7.938;2022-09-30T10:04:29;9.73;;;7.60;;
20458;SDS011;10388;52.314;7.938;2022-09-30T10:07:11;10.40;;;7.80;;
20458;SDS011;10388;52.314;7.938;2022-09-30T10:09:44;10.53;;;8.07;;
20458;SDS011;10388;52.314;7.938;2022-09-30T10:12:18;11.53;;;7.53;;
20458;SDS011;10388;52.314;7.938;2022-09-30T10:15:00;9.33;;;7.20;;
20458;SDS011;10388;52.314;7.938;2022-09-30T10:17:34;8.80;;;7.43;;
20458;SDS011;10388;52.314;7.938;2022-09-30T10:20:15;14.20;;;7.80;;
20458;SDS011;10388;52.314;7.938;2022-09-30T10:22:49;9.07;;;6.93;;
20458;SDS011;10388;52.314;7.938;2022-09-30T10:25:31;10.93;;;6.03;;
20458;SDS011;10388;52.314;7.938;2022-09-30T10:28:03;6.77;;;6.03;;
20458;SDS011;10388;52.314;7.938;2022-09-30T10:33:27;8.47;;;6.43;;
20458;SDS011;10388;52.314;7.938;2022-09-30T10:36:07;6.93;;;6.23;;
20458;SDS011;10388;52.314;7.938;2022-09-30T10:38:44;8.27;;;6.60;;
20458;SDS011;10388;52.314;7.938;2022-09-30T10:41:28;9.23;;;7.03;;
20458;SDS011;10388;52.314;7.938;2022-09-30T10:44:04;7.77;;;6.63;;
20458;SDS011;10388;52.314;7.938;2022-09-30T10:46:43;9.70;;;7.30;;
20458;SDS011;10388;52.314;7.938;2022-09-30T10:49:26;9.30;;;6.97;;
20458;SDS011;10388;52.314;7.938;2022-09-30T10:51:58;10.70;;;6.90;;
20458;SDS011;10388;52.314;7.938;2022-09-30T10:54:34;9.13;;;7.20;;
20458;SDS011;10388;52.314;7.938;2022-09-30T10:57:11;7.87;;;7.00;;
20458;SDS011;10388;52.314;7.938;2022-09-30T10:59:44;7.50;;;6.77;;
20458;SDS011;10388;52.314;7.938;2022-09-30T11:02:21;7.37;;;6.40;;
20458;SDS011;10388;52.314;7.938;2022-09-30T11:13:48;7.47;;;6.20;;
20458;SDS011;10388;52.314;7.938;2022-09-30T11:19:04;8.13;;;6.90;;
20458;SDS011;10388;52.314;7.938;2022-09-30T11:21:59;9.77;;;6.80;;
20458;SDS011;10388;52.314;7.938;2022-09-30T11:24:53;6.87;;;5.90;;
20458;SDS011;10388;52.314;7.938;2022-09-30T11:38:47;5.83;;;5.13;;
20458;SDS011;10388;52.314;7.938;2022-09-30T11:41:13;6.27;;;4.57;;
20458;SDS011;10388;52.314;7.938;2022-09-30T11:52:31;5.60;;;4.93;;
20458;SDS011;10388;52.314;7.938;2022-09-30T11:58:16;4.67;;;3.80;;
20458;SDS011;10388;52.314;7.938;2022-09-30T12:04:05;5.60;;;4.33;;
20458;SDS011;10388;52.314;7.938;2022-09-30T12:07:00;5.20;;;4.70;;
20458;SDS011;10388;52.314;7.938;2022-09-30T12:09:45;5.53;;;4.53;;
20458;SDS011;10388;52.314;7.938;2022-09-30T12:12:20;5.93;;;4.43;;
20458;SDS011;10388;52.314;7.938;2022-09-30T12:15:01;4.87;;;4.40;;
20458;SDS011;10388;52.314;7.938;2022-09-30T12:23:04;6.00;;;5.33;;
20458;SDS011;10388;52.314;7.938;2022-09-30T12:25:57;5.83;;;4.87;;
20458;SDS011;10388;52.314;7.938;2022-09-30T12:28:31;6.73;;;4.80;;
20458;SDS011;10388;52.314;7.938;2022-09-30T12:31:33;9.47;;;5.13;;
20458;SDS011;10388;52.314;7.938;2022-09-30T12:34:31;6.00;;;4.90;;
20458;SDS011;10388;52.314;7.938;2022-09-30T12:48:59;6.30;;;4.30;;
20458;SDS011;10388;52.314;7.938;2022-09-30T12:51:35;5.10;;;3.97;;
20458;SDS011;10388;52.314;7.938;2022-09-30T12:54:20;4.93;;;3.87;;
20458;SDS011;10388;52.314;7.938;2022-09-30T12:56:58;6.60;;;3.87;;
20458;SDS011;10388;52.314;7.938;2022-09-30T12:59:33;4.73;;;3.70;;
20458;SDS011;10388;52.314;7.938;2022-09-30T13:02:20;4.87;;;4.40;;
20458;SDS011;10388;52.314;7.938;2022-09-30T13:15:43;4.70;;;3.87;;
20458;SDS011;10388;52.314;7.938;2022-09-30T13:21:01;5.97;;;4.47;;
20458;SDS011;10388;52.314;7.938;2022-09-30T13:23:54;4.73;;;4.30;;
20458;SDS011;10388;52.314;7.938;2022-09-30T13:31:30;5.13;;;3.90;;
20458;SDS011;10388;52.314;7.938;2022-09-30T13:34:27;5.20;;;4.50;;
20458;SDS011;10388;52.314;7.938;2022-09-30T13:37:00;5.33;;;4.30;;
20458;SDS011;10388;52.314;7.938;2022-09-30T13:42:06;4.10;;;3.63;;
20458;SDS011;10388;52.314;7.938;2022-09-30T13:44:58;4.40;;;3.43;;
20458;SDS011;10388;52.314;7.938;2022-09-30T13:51:05;4.83;;;3.63;;
20458;SDS011;10388;52.314;7.938;2022-09-30T13:53:44;4.53;;;3.80;;
20458;SDS011;10388;52.314;7.938;2022-09-30T13:56:21;6.30;;;4.00;;
20458;SDS011;10388;52.314;7.938;2022-09-30T13:59:17;4.97;;;4.03;;
20458;SDS011;10388;52.314;7.938;2022-09-30T14:17:01;5.10;;;4.10;;
20458;SDS011;10388;52.314;7.938;2022-09-30T14:22:38;8.33;;;4.67;;
20458;SDS011;10388;52.314;7.938;2022-09-30T14:25:12;9.90;;;5.47;;
20458;SDS011;10388;52.314;7.938;2022-09-30T14:30:36;26.07;;;5.50;;
20458;SDS011;10388;52.314;7.938;2022-09-30T14:33:22;14.40;;;4.50;;
20458;SDS011;10388;52.314;7.938;2022-09-30T14:35:54;29.33;;;6.00;;
20458;SDS011;10388;52.314;7.938;2022-09-30T14:38:25;8.47;;;4.60;;
20458;SDS011;10388;52.314;7.938;2022-09-30T14:41:01;4.43;;;3.30;;
20458;SDS011;10388;52.314;7.938;2022-09-30T14:43:39;7.10;;;3.50;;
20458;SDS011;10388;52.314;7.938;2022-09-30T14:46:21;9.33;;;3.97;;
20458;SDS011;10388;52.314;7.938;2022-09-30T14:48:54;7.00;;;3.70;;
20458;SDS011;10388;52.314;7.938;2022-09-30T14:51:28;8.17;;;3.80;;
20458;SDS011;10388;52.314;7.938;2022-09-30T14:54:20;4.63;;;3.07;;
20458;SDS011;10388;52.314;7.938;2022-09-30T14:56:52;8.67;;;3.47;;
20458;SDS011;10388;52.314;7.938;2022-09-30T14:59:27;5.30;;;3.13;;
20458;SDS011;10388;52.314;7.938;2022-09-30T15:02:10;5.60;;;3.30;;
20458;SDS011;10388;52.314;7.938;2022-09-30T15:04:50;3.50;;;2.63;;
20458;SDS011;10388;52.314;7.938;2022-09-30T15:07:22;3.97;;;2.37;;
20458;SDS011;10388;52.314;7.938;2022-09-30T15:09:53;3.60;;;2.90;;
20458;SDS011;10388;52.314;7.938;2022-09-30T15:12:30;3.60;;;2.20;;
20458;SDS011;10388;52.314;7.938;2022-09-30T15:15:21;3.03;;;2.80;;
20458;SDS011;10388;52.314;7.938;2022-09-30T15:17:54;3.87;;;2.57;;
20458;SDS011;10388;52.314;7.938;2022-09-30T15:22:57;4.23;;;2.70;;
20458;SDS011;10388;52.314;7.938;2022-09-30T15:25:30;5.70;;;2.80;;
20458;SDS011;10388;52.314;7.938;2022-09-30T15:28:00;3.97;;;2.30;;
20458;SDS011;10388;52.314;7.938;2022-09-30T15:30:32;2.67;;;2.33;;
20458;SDS011;10388;52.314;7.938;2022-09-30T15:33:03;4.53;;;3.00;;
20458;SDS011;10388;52.314;7.938;2022-09-30T15:35:35;5.13;;;2.67;;
20458;SDS011;10388;52.314;7.938;2022-09-30T15:38:09;6.10;;;2.60;;
20458;SDS011;10388;52.314;7.938;2022-09-30T15:41:00;4.37;;;2.37;;
20458;SDS011;10388;52.314;7.938;2022-09-30T15:43:37;4.77;;;2.67;;
20458;SDS011;10388;52.314;7.938;2022-09-30T15:46:15;3.63;;;2.10;;
20458;SDS011;10388;52.314;7.938;2022-09-30T15:48:48;6.20;;;2.30;;
20458;SDS011;10388;52.314;7.938;2022-09-30T15:53:52;3.80;;;2.27;;
20458;SDS011;10388;52.314;7.938;2022-09-30T15:56:29;4.60;;;2.07;;
20458;SDS011;10388;52.314;7.938;2022-09-30T15:59:05;3.43;;;2.30;;
20458;SDS011;10388;52.314;7.938;2022-09-30T16:04:22;4.90;;;2.70;;
20458;SDS011;10388;52.314;7.938;2022-09-30T16:09:30;5.20;;;2.60;;
20458;SDS011;10388;52.314;7.938;2022-09-30T16:14:52;3.70;;;2.27;;
20458;SDS011;10388;52.314;7.938;2022-09-30T16:17:30;3.47;;;1.93;;
20458;SDS011;10388;52.314;7.938;2022-09-30T16:20:20;3.80;;;2.07;;
20458;SDS011;10388;52.314;7.938;2022-09-30T16:22:53;3.00;;;2.00;;
20458;SDS011;10388;52.314;7.938;2022-09-30T16:25:26;3.07;;;2.00;;
20458;SDS011;10388;52.314;7.938;2022-09-30T16:28:01;4.63;;;2.47;;
20458;SDS011;10388;52.314;7.938;2022-09-30T16:30:50;3.60;;;2.40;;
20458;SDS011;10388;52.314;7.938;2022-09-30T16:33:23;2.23;;;2.03;;
20458;SDS011;10388;52.314;7.938;2022-09-30T16:35:53;3.90;;;2.30;;
20458;SDS011;10388;52.314;7.938;2022-09-30T16:38:24;10.53;;;2.47;;
20458;SDS011;10388;52.314;7.938;2022-09-30T16:40:54;6.80;;;2.10;;
20458;SDS011;10388;52.314;7.938;2022-09-30T16:43:27;4.20;;;2.07;;
20458;SDS011;10388;52.314;7.938;2022-09-30T16:45:57;3.70;;;2.00;;
20458;SDS011;10388;52.314;7.938;2022-09-30T16:48:31;3.87;;;2.27;;
20458;SDS011;10388;52.314;7.938;2022-09-30T16:51:11;2.43;;;1.80;;
20458;SDS011;10388;52.314;7.938;2022-09-30T16:53:44;4.70;;;1.83;;
20458;SDS011;10388;52.314;7.938;2022-09-30T16:56:17;2.20;;;2.00;;
20458;SDS011;10388;52.314;7.938;2022-09-30T16:58:49;4.23;;;2.50;;
20458;SDS011;10388;52.314;7.938;2022-09-30T17:01:22;2.53;;;2.17;;
20458;SDS011;10388;52.314;7.938;2022-09-30T17:03:54;2.43;;;2.10;;
20458;SDS011;10388;52.314;7.938;2022-09-30T17:06:27;3.03;;;2.43;;
20458;SDS011;10388;52.314;7.938;2022-09-30T17:08:58;3.80;;;2.30;;
20458;SDS011;10388;52.314;7.938;2022-09-30T17:11:31;3.30;;;2.27;;
20458;SDS011;10388;52.314;7.938;2022-09-30T17:14:04;2.93;;;2.60;;
20458;SDS011;10388;52.314;7.938;2022-09-30T17:16:35;3.13;;;2.83;;
20458;SDS011;10388;52.314;7.938;2022-09-30T17:19:05;5.40;;;3.33;;
20458;SDS011;10388;52.314;7.938;2022-09-30T17:21:36;4.90;;;3.17;;
20458;SDS011;10388;52.314;7.938;2022-09-30T17:24:06;3.70;;;3.10;;
20458;SDS011;10388;52.314;7.938;2022-09-30T17:26:37;5.20;;;3.10;;
20458;SDS011;10388;52.314;7.938;2022-09-30T17:29:08;4.43;;;3.20;;
20458;SDS011;10388;52.314;7.938;2022-09-30T17:31:39;3.50;;;2.50;;
20458;SDS011;10388;52.314;7.938;2022-09-30T17:34:10;7.23;;;2.80;;
20458;SDS011;10388;52.314;7.938;2022-09-30T17:36:40;3.80;;;2.90;;
20458;SDS011;10388;52.314;7.938;2022-09-30T17:39:11;3.27;;;2.80;;
20458;SDS011;10388;52.314;7.938;2022-09-30T17:41:41;4.50;;;2.80;;
20458;SDS011;10388;52.314;7.938;2022-09-30T17:44:30;3.30;;;2.80;;
20458;SDS011;10388;52.314;7.938;2022-09-30T17:47:02;5.47;;;3.00;;
20458;SDS011;10388;52.314;7.938;2022-09-30T17:49:33;4.50;;;3.10;;
20458;SDS011;10388;52.314;7.938;2022-09-30T17:52:04;3.50;;;2.70;;
20458;SDS011;10388;52.314;7.938;2022-09-30T17:54:35;3.97;;;3.13;;
20458;SDS011;10388;52.314;7.938;2022-09-30T17:57:05;5.20;;;2.93;;
20458;SDS011;10388;52.314;7.938;2022-09-30T17:59:37;5.77;;;3.53;;
20458;SDS011;10388;52.314;7.938;2022-09-30T18:02:08;4.40;;;3.53;;
20458;SDS011;10388;52.314;7.938;2022-09-30T18:04:38;5.50;;;3.97;;
20458;SDS011;10388;52.314;7.938;2022-09-30T18:07:09;5.97;;;3.50;;
20458;SDS011;10388;52.314;7.938;2022-09-30T18:09:40;4.83;;;3.83;;
20458;SDS011;10388;52.314;7.938;2022-09-30T18:12:10;6.30;;;3.70;;
20458;SDS011;10388;52.314;7.938;2022-09-30T18:14:41;5.47;;;3.30;;
20458;SDS011;10388;52.314;7.938;2022-09-30T18:17:12;6.77;;;4.13;;
20458;SDS011;10388;52.314;7.938;2022-09-30T18:19:43;4.50;;;3.67;;
20458;SDS011;10388;52.314;7.938;2022-09-30T18:22:13;5.47;;;3.63;;
20458;SDS011;10388;52.314;7.938;2022-09-30T18:24:44;4.97;;;3.37;;
20458;SDS011;10388;52.314;7.938;2022-09-30T18:27:33;4.33;;;3.47;;
20458;SDS011;10388;52.314;7.938;2022-09-30T18:30:04;5.43;;;3.57;;
20458;SDS011;10388;52.314;7.938;2022-09-30T18:32:35;6.07;;;3.93;;
20458;SDS011;10388;52.314;7.938;2022-09-30T18:35:06;8.57;;;4.60;;
20458;SDS011;10388;52.314;7.938;2022-09-30T18:37:41;8.17;;;4.67;;
20458;SDS011;10388;52.314;7.938;2022-09-30T18:40:12;5.40;;;4.27;;
20458;SDS011;10388;52.314;7.938;2022-09-30T18:42:46;9.03;;;5.60;;
20458;SDS011;10388;52.314;7.938;2022-09-30T18:45:18;6.00;;;4.20;;
20458;SDS011;10388;52.314;7.938;2022-09-30T18:47:52;6.90;;;4.60;;
20458;SDS011;10388;52.314;7.938;2022-09-30T18:50:25;5.40;;;4.60;;
20458;SDS011;10388;52.314;7.938;2022-09-30T18:52:57;5.17;;;4.47;;
20458;SDS011;10388;52.314;7.938;2022-09-30T18:55:27;5.03;;;4.53;;
20458;SDS011;10388;52.314;7.938;2022-09-30T18:57:58;4.93;;;4.43;;
20458;SDS011;10388;52.314;7.938;2022-09-30T19:00:29;6.23;;;4.30;;
20458;SDS011;10388;52.314;7.938;2022-09-30T19:03:00;5.57;;;4.90;;
20458;SDS011;10388;52.314;7.938;2022-09-30T19:05:30;6.23;;;4.50;;
20458;SDS011;10388;52.314;7.938;2022-09-30T19:08:01;7.10;;;4.13;;
20458;SDS011;10388;52.314;7.938;2022-09-30T19:10:31;6.47;;;4.27;;
20458;SDS011;10388;52.314;7.938;2022-09-30T19:13:03;7.60;;;5.03;;
20458;SDS011;10388;52.314;7.938;2022-09-30T19:15:35;4.47;;;4.07;;
20458;SDS011;10388;52.314;7.938;2022-09-30T19:18:07;5.47;;;4.50;;
20458;SDS011;10388;52.314;7.938;2022-09-30T19:20:39;5.40;;;4.40;;
20458;SDS011;10388;52.314;7.938;2022-09-30T19:23:10;6.90;;;4.37;;
20458;SDS011;10388;52.314;7.938;2022-09-30T19:25:41;4.93;;;4.43;;
20458;SDS011;10388;52.314;7.938;2022-09-30T19:28:12;5.43;;;4.80;;
20458;SDS011;10388;52.314;7.938;2022-09-30T19:30:43;6.10;;;4.50;;
20458;SDS011;10388;52.314;7.938;2022-09-30T19:33:16;5.03;;;4.40;;
20458;SDS011;10388;52.314;7.938;2022-09-30T19:35:48;6.10;;;5.03;;
20458;SDS011;10388;52.314;7.938;2022-09-30T19:38:19;7.03;;;5.20;;
20458;SDS011;10388;52.314;7.938;2022-09-30T19:40:54;6.23;;;5.00;;
20458;SDS011;10388;52.314;7.938;2022-09-30T19:43:24;5.27;;;4.70;;
20458;SDS011;10388;52.314;7.938;2022-09-30T19:45:56;7.07;;;5.13;;
20458;SDS011;10388;52.314;7.938;2022-09-30T19:48:28;7.83;;;5.00;;
20458;SDS011;10388;52.314;7.938;2022-09-30T19:51:02;6.77;;;5.30;;
20458;SDS011;10388;52.314;7.938;2022-09-30T19:53:41;6.70;;;5.40;;
20458;SDS011;10388;52.314;7.938;2022-09-30T19:56:31;6.87;;;5.60;;
20458;SDS011;10388;52.314;7.938;2022-09-30T19:59:02;7.60;;;5.60;;
20458;SDS011;10388;52.314;7.938;2022-09-30T20:01:33;11.97;;;6.57;;
20458;SDS011;10388;52.314;7.938;2022-09-30T20:04:04;9.50;;;6.00;;
20458;SDS011;10388;52.314;7.938;2022-09-30T20:06:35;7.73;;;6.20;;
20458;SDS011;10388;52.314;7.938;2022-09-30T20:09:05;6.10;;;5.47;;
20458;SDS011;10388;52.314;7.938;2022-09-30T20:11:37;7.90;;;5.70;;
20458;SDS011;10388;52.314;7.938;2022-09-30T20:14:08;6.73;;;5.00;;
20458;SDS011;10388;52.314;7.938;2022-09-30T20:16:57;6.17;;;4.83;;
20458;SDS011;10388;52.314;7.938;2022-09-30T20:19:28;6.07;;;5.47;;
20458;SDS011;10388;52.314;7.938;2022-09-30T20:21:58;7.03;;;5.43;;
20458;SDS011;10388;52.314;7.938;2022-09-30T20:24:29;7.00;;;4.87;;
20458;SDS011;10388;52.314;7.938;2022-09-30T20:27:00;5.80;;;4.77;;
20458;SDS011;10388;52.314;7.938;2022-09-30T20:29:31;5.17;;;4.63;;
20458;SDS011;10388;52.314;7.938;2022-09-30T20:32:02;6.27;;;4.63;;
20458;SDS011;10388;52.314;7.938;2022-09-30T20:34:32;5.60;;;4.60;;
20458;SDS011;10388;52.314;7.938;2022-09-30T20:37:03;5.90;;;4.97;;
20458;SDS011;10388;52.314;7.938;2022-09-30T20:39:33;5.40;;;4.47;;
20458;SDS011;10388;52.314;7.938;2022-09-30T20:42:04;5.37;;;4.87;;
20458;SDS011;10388;52.314;7.938;2022-09-30T20:44:35;5.93;;;4.53;;
20458;SDS011;10388;52.314;7.938;2022-09-30T20:47:06;5.33;;;4.13;;
20458;SDS011;10388;52.314;7.938;2022-09-30T20:49:37;5.53;;;4.17;;
20458;SDS011;10388;52.314;7.938;2022-09-30T20:52:08;6.77;;;4.60;;
20458;SDS011;10388;52.314;7.938;2022-09-30T20:54:38;5.50;;;4.57;;
20458;SDS011;10388;52.314;7.938;2022-09-30T20:57:09;5.27;;;4.63;;
20458;SDS011;10388;52.314;7.938;2022-09-30T20:59:39;4.30;;;3.90;;
20458;SDS011;10388;52.314;7.938;2022-09-30T21:02:10;5.37;;;4.30;;
20458;SDS011;10388;52.314;7.938;2022-09-30T21:04:42;4.10;;;3.73;;